createdAt,value
2022-11-14T00:00:11.337Z,999.61
2022-11-14T00:01:11.171Z,999.63
2022-11-14T00:02:11.159Z,999.58
2022-11-14T00:03:11.202Z,999.56
2022-11-14T00:04:11.130Z,999.57
2022-11-14T00:05:11.115Z,999.58
2022-11-14T00:06:11.125Z,999.54
2022-11-14T00:07:11.139Z,999.52
2022-11-14T00:08:11.085Z,999.50
2022-11-14T00:09:11.076Z,999.57
2022-11-14T00:10:11.067Z,999.52
2022-11-14T00:11:11.072Z,999.53
2022-11-14T00:12:11.036Z,999.50
2022-11-14T00:13:11.025Z,999.47
2022-11-14T00:14:11.014Z,999.42
2022-11-14T00:15:11.005Z,999.43
2022-11-14T00:16:11.033Z,999.46
2022-11-14T00:17:11.005Z,999.45
2022-11-14T00:18:10.973Z,999.45
2022-11-14T00:19:10.954Z,999.42
2022-11-14T00:20:10.952Z,999.42
2022-11-14T00:21:10.952Z,999.39
2022-11-14T00:22:10.923Z,999.41
2022-11-14T00:23:10.934Z,999.40
2022-11-14T00:24:10.906Z,999.44
2022-11-14T00:25:10.896Z,999.49
2022-11-14T00:26:10.879Z,999.45
2022-11-14T00:27:10.882Z,999.42
2022-11-14T00:28:10.856Z,999.46
2022-11-14T00:29:10.867Z,999.48
2022-11-14T00:30:10.843Z,999.44
2022-11-14T00:31:10.821Z,999.44
2022-11-14T00:32:10.813Z,999.41
2022-11-14T00:33:12.038Z,999.45
2022-11-14T00:34:10.792Z,999.46
2022-11-14T00:35:10.825Z,999.41
2022-11-14T00:36:10.773Z,999.42
2022-11-14T00:37:10.754Z,999.43
2022-11-14T00:38:10.752Z,999.41
2022-11-14T00:39:10.732Z,999.37
2022-11-14T00:40:10.722Z,999.36
2022-11-14T00:41:10.730Z,999.39
2022-11-14T00:42:10.701Z,999.36
2022-11-14T00:43:10.693Z,999.33
2022-11-14T00:44:10.679Z,999.37
2022-11-14T00:45:10.669Z,999.36
2022-11-14T00:46:10.661Z,999.30
2022-11-14T00:47:10.650Z,999.33
2022-11-14T00:48:10.630Z,999.33
2022-11-14T00:49:10.620Z,999.36
2022-11-14T00:50:10.610Z,999.31
2022-11-14T00:51:10.598Z,999.28
2022-11-14T00:52:10.611Z,999.25
2022-11-14T00:53:10.571Z,999.32
2022-11-14T00:54:10.696Z,999.28
2022-11-14T00:55:10.977Z,999.32
2022-11-14T00:56:10.549Z,999.31
2022-11-14T00:57:10.534Z,999.38
2022-11-14T00:58:10.540Z,999.29
2022-11-14T00:59:10.508Z,999.33
2022-11-14T01:00:10.505Z,999.28
2022-11-14T01:01:10.526Z,999.28
2022-11-14T01:02:10.469Z,999.25
2022-11-14T01:03:10.458Z,999.28
2022-11-14T01:04:13.548Z,999.33
2022-11-14T01:05:10.453Z,999.29
2022-11-14T01:06:10.430Z,999.24
2022-11-14T01:07:10.417Z,999.25
2022-11-14T01:08:10.408Z,999.24
2022-11-14T01:09:10.448Z,999.23
2022-11-14T01:10:10.412Z,999.24
2022-11-14T01:11:10.368Z,999.16
2022-11-14T01:12:10.359Z,999.15
2022-11-14T01:13:10.348Z,999.13
2022-11-14T01:14:10.354Z,999.18
2022-11-14T01:15:10.327Z,999.13
2022-11-14T01:16:10.337Z,999.10
2022-11-14T01:17:10.297Z,999.16
2022-11-14T01:18:10.298Z,999.10
2022-11-14T01:19:10.279Z,999.14
2022-11-14T01:20:10.282Z,999.10
2022-11-14T01:21:10.257Z,999.09
2022-11-14T01:22:10.267Z,999.08
2022-11-14T01:23:10.236Z,999.03
2022-11-14T01:24:10.226Z,999.09
2022-11-14T01:25:10.217Z,999.03
2022-11-14T01:26:10.206Z,999.03
2022-11-14T01:27:10.217Z,999.01
2022-11-14T01:28:10.186Z,998.98
2022-11-14T01:29:10.165Z,998.96
2022-11-14T01:30:10.156Z,998.97
2022-11-14T01:31:10.146Z,998.95
2022-11-14T01:32:10.136Z,998.98
2022-11-14T01:33:10.145Z,998.96
2022-11-14T01:34:10.115Z,998.96
2022-11-14T01:35:10.097Z,998.97
2022-11-14T01:36:10.096Z,998.93
2022-11-14T01:37:10.075Z,998.96
2022-11-14T01:38:10.073Z,998.95
2022-11-14T01:39:10.106Z,998.92
2022-11-14T01:40:10.045Z,998.93
2022-11-14T01:41:10.035Z,998.91
2022-11-14T01:42:10.035Z,998.94
2022-11-14T01:43:10.016Z,998.80
2022-11-14T01:44:10.004Z,998.81
2022-11-14T01:45:10.005Z,998.83
2022-11-14T01:46:09.986Z,998.82
2022-11-14T01:47:09.976Z,998.74
2022-11-14T01:48:09.965Z,998.72
2022-11-14T01:49:09.944Z,998.75
2022-11-14T01:50:09.937Z,998.69
2022-11-14T01:51:09.946Z,998.69
2022-11-14T01:52:09.913Z,998.65
2022-11-14T01:53:09.905Z,998.64
2022-11-14T01:54:09.900Z,998.60
2022-11-14T01:55:09.900Z,998.66
2022-11-14T01:56:09.908Z,998.63
2022-11-14T01:57:09.853Z,998.64
2022-11-14T01:58:09.844Z,998.61
2022-11-14T01:59:09.832Z,998.63
2022-11-14T02:00:09.825Z,998.62
2022-11-14T02:01:09.875Z,998.60
2022-11-14T02:02:09.823Z,998.58
2022-11-14T02:03:09.783Z,998.55
2022-11-14T02:04:14.149Z,998.58
2022-11-14T02:05:10.764Z,998.61
2022-11-14T02:06:09.752Z,998.59
2022-11-14T02:07:09.768Z,998.56
2022-11-14T02:08:09.764Z,998.58
2022-11-14T02:09:09.722Z,998.59
2022-11-14T02:10:09.711Z,998.50
2022-11-14T02:11:09.693Z,998.55
2022-11-14T02:12:09.690Z,998.54
2022-11-14T02:13:09.671Z,998.53
2022-11-14T02:14:09.692Z,998.56
2022-11-14T02:15:09.652Z,998.52
2022-11-14T02:16:09.641Z,998.45
2022-11-14T02:17:29.068Z,998.45
2022-11-14T02:18:10.624Z,998.45
2022-11-14T02:19:09.602Z,998.45
2022-11-14T02:20:09.610Z,998.45
2022-11-14T02:21:09.580Z,998.45
2022-11-14T02:22:09.571Z,998.41
2022-11-14T02:23:09.562Z,998.42
2022-11-14T02:24:09.553Z,998.37
2022-11-14T02:25:13.873Z,998.42
2022-11-14T02:26:09.532Z,998.41
2022-11-14T02:27:09.521Z,998.44
2022-11-14T02:28:09.510Z,998.47
2022-11-14T02:29:09.491Z,998.47
2022-11-14T02:30:09.490Z,998.44
2022-11-14T02:31:09.499Z,998.48
2022-11-14T02:32:10.865Z,998.40
2022-11-14T02:33:10.981Z,998.44
2022-11-14T02:34:09.440Z,998.43
2022-11-14T02:35:09.430Z,998.36
2022-11-14T02:36:09.420Z,998.37
2022-11-14T02:37:09.420Z,998.41
2022-11-14T02:38:09.399Z,998.43
2022-11-14T02:39:09.381Z,998.40
2022-11-14T02:40:16.755Z,998.39
2022-11-14T02:41:09.362Z,998.37
2022-11-14T02:42:09.354Z,998.28
2022-11-14T02:43:09.361Z,998.33
2022-11-14T02:44:09.334Z,998.30
2022-11-14T02:45:09.329Z,998.25
2022-11-14T02:46:09.303Z,998.27
2022-11-14T02:47:09.295Z,998.25
2022-11-14T02:48:09.304Z,998.23
2022-11-14T02:49:09.276Z,998.23
2022-11-14T02:50:09.262Z,998.27
2022-11-14T02:51:09.253Z,998.20
2022-11-14T02:52:09.242Z,998.21
2022-11-14T02:53:09.233Z,998.23
2022-11-14T02:54:09.282Z,998.23
2022-11-14T02:55:09.203Z,998.23
2022-11-14T02:56:09.195Z,998.20
2022-11-14T02:57:09.182Z,998.15
2022-11-14T02:58:09.162Z,998.19
2022-11-14T02:59:09.163Z,998.11
2022-11-14T03:00:14.557Z,998.19
2022-11-14T03:01:20.875Z,998.10
2022-11-14T03:02:10.192Z,998.09
2022-11-14T03:03:09.116Z,998.11
2022-11-14T03:04:09.100Z,998.09
2022-11-14T03:05:09.103Z,998.08
2022-11-14T03:06:09.107Z,998.12
2022-11-14T03:07:09.134Z,998.08
2022-11-14T03:08:09.056Z,998.12
2022-11-14T03:09:09.052Z,997.98
2022-11-14T03:10:09.032Z,998.01
2022-11-14T03:11:09.041Z,998.06
2022-11-14T03:12:09.012Z,998.01
2022-11-14T03:13:08.999Z,997.96
2022-11-14T03:14:08.994Z,997.93
2022-11-14T03:15:08.980Z,997.93
2022-11-14T03:16:08.969Z,997.96
2022-11-14T03:17:08.979Z,997.91
2022-11-14T03:18:08.949Z,997.92
2022-11-14T03:19:08.945Z,997.86
2022-11-14T03:20:08.919Z,997.90
2022-11-14T03:21:08.909Z,997.92
2022-11-14T03:22:08.901Z,997.90
2022-11-14T03:23:08.911Z,997.91
2022-11-14T03:24:08.877Z,997.83
2022-11-14T03:25:08.874Z,997.86
2022-11-14T03:26:08.867Z,997.83
2022-11-14T03:27:08.850Z,997.83
2022-11-14T03:28:08.829Z,997.77
2022-11-14T03:29:08.850Z,997.78
2022-11-14T03:30:08.808Z,997.83
2022-11-14T03:31:08.799Z,997.86
2022-11-14T03:32:08.787Z,997.87
2022-11-14T03:33:08.777Z,997.81
2022-11-14T03:34:08.760Z,997.83
2022-11-14T03:35:08.778Z,997.83
2022-11-14T03:36:08.746Z,997.85
2022-11-14T03:37:08.734Z,997.83
2022-11-14T03:38:08.720Z,997.80
2022-11-14T03:39:08.708Z,997.88
2022-11-14T03:40:08.698Z,997.82
2022-11-14T03:41:08.707Z,997.86
2022-11-14T03:42:08.677Z,997.86
2022-11-14T03:43:08.668Z,997.86
2022-11-14T03:44:08.649Z,997.85
2022-11-14T03:45:08.645Z,997.87
2022-11-14T03:46:08.629Z,997.77
2022-11-14T03:47:08.637Z,997.76
2022-11-14T03:48:08.608Z,997.73
2022-11-14T03:49:08.598Z,997.76
2022-11-14T03:50:08.591Z,997.78
2022-11-14T03:51:08.585Z,997.77
2022-11-14T03:52:08.595Z,997.76
2022-11-14T03:53:08.557Z,997.70
2022-11-14T03:54:08.537Z,997.79
2022-11-14T03:55:08.528Z,997.77
2022-11-14T03:56:08.515Z,997.80
2022-11-14T03:57:08.506Z,997.80
2022-11-14T03:58:08.517Z,997.75
2022-11-14T03:59:08.485Z,997.75
2022-11-14T04:00:08.483Z,997.79
2022-11-14T04:01:08.546Z,997.76
2022-11-14T04:02:08.454Z,997.66
2022-11-14T04:03:08.444Z,997.79
2022-11-14T04:04:08.437Z,997.75
2022-11-14T04:05:08.426Z,997.75
2022-11-14T04:06:08.406Z,997.76
2022-11-14T04:07:08.461Z,997.76
2022-11-14T04:08:08.391Z,997.74
2022-11-14T04:09:08.374Z,997.72
2022-11-14T04:10:08.386Z,997.78
2022-11-14T04:11:08.349Z,997.72
2022-11-14T04:12:12.831Z,997.71
2022-11-14T04:13:09.324Z,997.67
2022-11-14T04:14:08.315Z,997.66
2022-11-14T04:15:08.305Z,997.65
2022-11-14T04:16:08.417Z,997.66
2022-11-14T04:17:08.284Z,997.65
2022-11-14T04:18:08.265Z,997.61
2022-11-14T04:19:08.263Z,997.64
2022-11-14T04:20:08.244Z,997.61
2022-11-14T04:21:08.261Z,997.59
2022-11-14T04:22:08.222Z,997.53
2022-11-14T04:23:08.214Z,997.53
2022-11-14T04:24:10.920Z,997.51
2022-11-14T04:25:08.197Z,997.53
2022-11-14T04:26:08.180Z,997.51
2022-11-14T04:27:08.182Z,997.51
2022-11-14T04:28:08.154Z,997.52
2022-11-14T04:29:08.144Z,997.50
2022-11-14T04:30:08.140Z,997.46
2022-11-14T04:31:08.123Z,997.48
2022-11-14T04:32:08.134Z,997.47
2022-11-14T04:33:08.104Z,997.44
2022-11-14T04:34:08.084Z,997.46
2022-11-14T04:35:08.082Z,997.42
2022-11-14T04:36:08.063Z,997.41
2022-11-14T04:37:08.053Z,997.45
2022-11-14T04:38:08.061Z,997.44
2022-11-14T04:39:08.054Z,997.42
2022-11-14T04:40:08.021Z,997.44
2022-11-14T04:41:08.011Z,997.49
2022-11-14T04:42:08.001Z,997.46
2022-11-14T04:43:08.012Z,997.48
2022-11-14T04:44:07.971Z,997.45
2022-11-14T04:45:08.063Z,997.41
2022-11-14T04:46:07.953Z,997.44
2022-11-14T04:47:07.943Z,997.42
2022-11-14T04:48:07.923Z,997.42
2022-11-14T04:49:07.940Z,997.42
2022-11-14T04:50:07.909Z,997.42
2022-11-14T04:51:07.898Z,997.35
2022-11-14T04:52:07.883Z,997.39
2022-11-14T04:53:07.872Z,997.38
2022-11-14T04:54:07.859Z,997.40
2022-11-14T04:55:07.868Z,997.36
2022-11-14T04:56:07.851Z,997.33
2022-11-14T04:57:07.829Z,997.37
2022-11-14T04:58:07.817Z,997.37
2022-11-14T04:59:07.808Z,997.36
2022-11-14T05:00:07.810Z,997.39
2022-11-14T05:01:07.837Z,997.39
2022-11-14T05:02:07.768Z,997.45
2022-11-14T05:03:07.758Z,997.43
2022-11-14T05:04:07.749Z,997.42
2022-11-14T05:05:07.751Z,997.43
2022-11-14T05:06:07.749Z,997.44
2022-11-14T05:07:07.756Z,997.43
2022-11-14T05:08:07.698Z,997.40
2022-11-14T05:09:07.706Z,997.36
2022-11-14T05:10:07.678Z,997.38
2022-11-14T05:11:07.669Z,997.33
2022-11-14T05:12:07.678Z,997.36
2022-11-14T05:13:07.647Z,997.35
2022-11-14T05:14:07.636Z,997.36
2022-11-14T05:15:07.628Z,997.32
2022-11-14T05:16:07.607Z,997.32
2022-11-14T05:17:07.609Z,997.22
2022-11-14T05:18:07.621Z,997.27
2022-11-14T05:19:07.667Z,997.28
2022-11-14T05:20:07.570Z,997.26
2022-11-14T05:21:07.557Z,997.23
2022-11-14T05:22:07.547Z,997.23
2022-11-14T05:23:07.553Z,997.18
2022-11-14T05:24:07.546Z,997.20
2022-11-14T05:25:07.520Z,997.18
2022-11-14T05:26:07.507Z,997.18
2022-11-14T05:27:07.486Z,997.13
2022-11-14T05:28:07.475Z,997.18
2022-11-14T05:29:07.486Z,997.18
2022-11-14T05:30:07.455Z,997.16
2022-11-14T05:31:07.467Z,997.19
2022-11-14T05:32:08.597Z,997.24
2022-11-14T05:33:07.425Z,997.20
2022-11-14T05:34:07.414Z,997.22
2022-11-14T05:35:07.416Z,997.23
2022-11-14T05:36:07.386Z,997.21
2022-11-14T05:37:07.377Z,997.21
2022-11-14T05:38:07.366Z,997.17
2022-11-14T05:39:07.357Z,997.18
2022-11-14T05:40:07.367Z,997.23
2022-11-14T05:41:07.338Z,997.17
2022-11-14T05:42:07.321Z,997.17
2022-11-14T05:43:07.314Z,997.26
2022-11-14T05:44:07.295Z,997.26
2022-11-14T05:45:07.295Z,997.25
2022-11-14T05:46:07.284Z,997.32
2022-11-14T05:47:07.263Z,997.32
2022-11-14T05:48:07.257Z,997.29
2022-11-14T05:49:07.244Z,997.31
2022-11-14T05:50:07.245Z,997.33
2022-11-14T05:51:07.243Z,997.25
2022-11-14T05:52:07.205Z,997.29
2022-11-14T05:53:07.203Z,997.31
2022-11-14T05:54:07.185Z,997.25
2022-11-14T05:55:07.173Z,997.26
2022-11-14T05:56:07.162Z,997.19
2022-11-14T05:57:07.173Z,997.24
2022-11-14T05:58:07.144Z,997.25
2022-11-14T05:59:07.133Z,997.25
2022-11-14T06:00:07.123Z,997.27
2022-11-14T06:01:07.114Z,997.27
2022-11-14T06:02:07.173Z,997.32
2022-11-14T06:03:07.089Z,997.34
2022-11-14T06:04:07.071Z,997.33
2022-11-14T06:05:07.076Z,997.34
2022-11-14T06:06:07.051Z,997.38
2022-11-14T06:07:07.077Z,997.35
2022-11-14T06:08:07.053Z,997.40
2022-11-14T06:09:07.024Z,997.35
2022-11-14T06:10:07.012Z,997.39
2022-11-14T06:11:06.995Z,997.39
2022-11-14T06:12:06.982Z,997.37
2022-11-14T06:13:06.972Z,997.39
2022-11-14T06:14:10.461Z,997.43
2022-11-14T06:15:06.951Z,997.42
2022-11-14T06:16:06.930Z,997.47
2022-11-14T06:17:06.929Z,997.48
2022-11-14T06:18:06.910Z,997.49
2022-11-14T06:19:06.900Z,997.49
2022-11-14T06:20:06.920Z,997.49
2022-11-14T06:21:06.891Z,997.58
2022-11-14T06:22:06.879Z,997.57
2022-11-14T06:23:06.860Z,997.55
2022-11-14T06:24:06.844Z,997.55
2022-11-14T06:25:06.840Z,997.58
2022-11-14T06:26:06.846Z,997.55
2022-11-14T06:27:06.819Z,997.50
2022-11-14T06:28:06.798Z,997.55
2022-11-14T06:29:06.810Z,997.54
2022-11-14T06:30:06.790Z,997.62
2022-11-14T06:31:06.785Z,997.62
2022-11-14T06:32:06.769Z,997.63
2022-11-14T06:33:06.740Z,997.64
2022-11-14T06:34:06.733Z,997.61
2022-11-14T06:35:06.719Z,997.65
2022-11-14T06:36:06.716Z,997.59
2022-11-14T06:37:06.719Z,997.63
2022-11-14T06:38:06.699Z,997.53
2022-11-14T06:39:06.722Z,997.58
2022-11-14T06:40:06.688Z,997.49
2022-11-14T06:41:06.703Z,997.42
2022-11-14T06:42:06.649Z,997.47
2022-11-14T06:43:06.661Z,997.46
2022-11-14T06:44:06.629Z,997.45
2022-11-14T06:45:06.618Z,997.49
2022-11-14T06:46:06.607Z,997.48
2022-11-14T06:47:06.588Z,997.52
2022-11-14T06:48:06.577Z,997.51
2022-11-14T06:49:06.588Z,997.52
2022-11-14T06:50:06.565Z,997.55
2022-11-14T06:51:06.555Z,997.51
2022-11-14T06:52:06.532Z,997.53
2022-11-14T06:53:06.550Z,997.54
2022-11-14T06:54:06.516Z,997.54
2022-11-14T06:55:06.642Z,997.57
2022-11-14T06:56:06.487Z,997.53
2022-11-14T06:57:06.478Z,997.58
2022-11-14T06:58:06.836Z,997.50
2022-11-14T06:59:06.475Z,997.48
2022-11-14T07:00:06.446Z,997.46
2022-11-14T07:01:06.447Z,997.52
2022-11-14T07:02:06.417Z,997.49
2022-11-14T07:03:06.444Z,997.51
2022-11-14T07:04:06.396Z,997.48
2022-11-14T07:05:06.386Z,997.54
2022-11-14T07:06:06.451Z,997.51
2022-11-14T07:07:06.399Z,997.59
2022-11-14T07:08:06.353Z,997.61
2022-11-14T07:09:06.347Z,997.64
2022-11-14T07:10:06.335Z,997.56
2022-11-14T07:11:06.323Z,997.62
2022-11-14T07:12:06.329Z,997.64
2022-11-14T07:13:06.295Z,997.61
2022-11-14T07:14:06.287Z,997.59
2022-11-14T07:15:06.266Z,997.66
2022-11-14T07:16:06.264Z,997.61
2022-11-14T07:17:06.246Z,997.67
2022-11-14T07:18:06.254Z,997.65
2022-11-14T07:19:06.234Z,997.66
2022-11-14T07:20:06.236Z,997.59
2022-11-14T07:21:06.205Z,997.61
2022-11-14T07:22:06.194Z,997.65
2022-11-14T07:23:06.205Z,997.58
2022-11-14T07:24:06.176Z,997.58
2022-11-14T07:25:06.154Z,997.58
2022-11-14T07:26:06.147Z,997.55
2022-11-14T07:27:06.134Z,997.55
2022-11-14T07:28:06.127Z,997.50
2022-11-14T07:29:06.134Z,997.51
2022-11-14T07:30:06.112Z,997.57
2022-11-14T07:31:06.634Z,997.56
2022-11-14T07:32:06.083Z,997.59
2022-11-14T07:33:06.074Z,997.59
2022-11-14T07:34:06.054Z,997.53
2022-11-14T07:35:06.063Z,997.52
2022-11-14T07:36:06.035Z,997.49
2022-11-14T07:37:06.021Z,997.56
2022-11-14T07:38:06.012Z,997.53
2022-11-14T07:39:05.992Z,997.46
2022-11-14T07:40:05.995Z,997.55
2022-11-14T07:41:06.004Z,997.49
2022-11-14T07:42:05.971Z,997.48
2022-11-14T07:43:05.952Z,997.51
2022-11-14T07:44:05.942Z,997.55
2022-11-14T07:45:05.930Z,997.62
2022-11-14T07:46:05.943Z,997.62
2022-11-14T07:47:05.902Z,997.65
2022-11-14T07:48:05.892Z,997.64
2022-11-14T07:49:05.881Z,997.60
2022-11-14T07:50:05.883Z,997.60
2022-11-14T07:51:05.863Z,997.59
2022-11-14T07:52:05.870Z,997.59
2022-11-14T07:53:05.840Z,997.51
2022-11-14T07:54:05.831Z,997.51
2022-11-14T07:55:05.822Z,997.58
2022-11-14T07:56:05.815Z,997.62
2022-11-14T07:57:05.806Z,997.60
2022-11-14T07:58:05.813Z,997.57
2022-11-14T07:59:05.771Z,997.60
2022-11-14T08:00:05.773Z,997.61
2022-11-14T08:01:05.779Z,997.62
2022-11-14T08:02:05.742Z,997.63
2022-11-14T08:03:05.722Z,997.65
2022-11-14T08:04:05.745Z,997.68
2022-11-14T08:05:05.701Z,997.69
2022-11-14T08:06:05.702Z,997.66
2022-11-14T08:07:05.761Z,997.68
2022-11-14T08:08:05.671Z,997.62
2022-11-14T08:09:05.676Z,997.63
2022-11-14T08:10:05.689Z,997.64
2022-11-14T08:11:05.658Z,997.64
2022-11-14T08:12:05.630Z,997.67
2022-11-14T08:13:30.407Z,997.70
2022-11-14T08:14:06.599Z,997.64
2022-11-14T08:15:05.591Z,997.64
2022-11-14T08:16:10.751Z,997.62
2022-11-14T08:17:06.594Z,997.58
2022-11-14T08:18:05.561Z,997.52
2022-11-14T08:19:05.551Z,997.48
2022-11-14T08:20:05.549Z,997.51
2022-11-14T08:21:05.520Z,997.53
2022-11-14T08:22:05.549Z,997.51
2022-11-14T08:23:05.507Z,997.52
2022-11-14T08:24:05.510Z,997.62
2022-11-14T08:25:05.479Z,997.54
2022-11-14T08:26:05.476Z,997.57
2022-11-14T08:27:05.458Z,997.53
2022-11-14T08:28:05.468Z,997.52
2022-11-14T08:29:05.438Z,997.52
2022-11-14T08:30:05.438Z,997.55
2022-11-14T08:31:05.420Z,997.58
2022-11-14T08:32:05.409Z,997.61
2022-11-14T08:33:05.418Z,997.64
2022-11-14T08:34:05.392Z,997.51
2022-11-14T08:35:05.380Z,997.57
2022-11-14T08:36:05.366Z,997.54
2022-11-14T08:37:05.347Z,997.58
2022-11-14T08:38:05.352Z,997.56
2022-11-14T08:39:05.348Z,997.51
2022-11-14T08:40:05.329Z,997.49
2022-11-14T08:41:05.308Z,997.51
2022-11-14T08:42:05.298Z,997.52
2022-11-14T08:43:05.288Z,997.49
2022-11-14T08:44:05.278Z,997.43
2022-11-14T08:45:05.279Z,997.45
2022-11-14T08:46:05.250Z,997.49
2022-11-14T08:47:05.238Z,997.50
2022-11-14T08:48:05.227Z,997.46
2022-11-14T08:49:05.206Z,997.49
2022-11-14T08:50:05.207Z,997.56
2022-11-14T08:51:05.205Z,997.55
2022-11-14T08:52:05.177Z,997.52
2022-11-14T08:53:05.167Z,997.49
2022-11-14T08:54:05.156Z,997.53
2022-11-14T08:55:05.147Z,997.55
2022-11-14T08:56:05.158Z,997.53
2022-11-14T08:57:05.116Z,997.57
2022-11-14T08:58:05.106Z,997.62
2022-11-14T08:59:05.087Z,997.54
2022-11-14T09:00:05.098Z,997.56
2022-11-14T09:01:05.068Z,997.53
2022-11-14T09:02:05.096Z,997.56
2022-11-14T09:03:05.081Z,997.50
2022-11-14T09:04:05.154Z,997.48
2022-11-14T09:05:05.026Z,997.58
2022-11-14T09:06:05.019Z,997.53
2022-11-14T09:07:05.074Z,997.61
2022-11-14T09:08:05.007Z,997.60
2022-11-14T09:09:04.974Z,997.57
2022-11-14T09:10:04.980Z,997.60
2022-11-14T09:11:06.044Z,997.64
2022-11-14T09:12:04.947Z,997.64
2022-11-14T09:13:04.948Z,997.64
2022-11-14T09:14:04.936Z,997.76
2022-11-14T09:15:04.907Z,997.81
2022-11-14T09:16:04.900Z,997.71
2022-11-14T09:17:06.222Z,997.71
2022-11-14T09:18:04.888Z,997.71
2022-11-14T09:19:04.886Z,997.70
2022-11-14T09:20:04.971Z,997.71
2022-11-14T09:21:04.839Z,997.71
2022-11-14T09:22:04.948Z,997.76
2022-11-14T09:23:04.823Z,997.71
2022-11-14T09:24:04.836Z,997.76
2022-11-14T09:25:04.798Z,997.71
2022-11-14T09:26:04.796Z,997.69
2022-11-14T09:27:04.774Z,997.70
2022-11-14T09:28:04.755Z,997.73
2022-11-14T09:29:04.795Z,997.66
2022-11-14T09:30:04.775Z,997.69
2022-11-14T09:31:04.724Z,997.68
2022-11-14T09:32:04.715Z,997.74
2022-11-14T09:33:10.104Z,997.68
2022-11-14T09:34:05.708Z,997.73
2022-11-14T09:35:04.684Z,997.75
2022-11-14T09:36:04.684Z,997.71
2022-11-14T09:37:04.653Z,997.70
2022-11-14T09:38:04.645Z,997.66
2022-11-14T09:39:04.626Z,997.66
2022-11-14T09:40:04.625Z,997.60
2022-11-14T09:41:04.655Z,997.50
2022-11-14T09:42:04.594Z,997.51
2022-11-14T09:43:04.585Z,997.44
2022-11-14T09:44:04.575Z,997.52
2022-11-14T09:45:04.556Z,997.55
2022-11-14T09:46:04.555Z,997.48
2022-11-14T09:47:04.554Z,997.50
2022-11-14T09:48:04.526Z,997.42
2022-11-14T09:49:04.508Z,997.46
2022-11-14T09:50:04.513Z,997.48
2022-11-14T09:51:04.494Z,997.54
2022-11-14T09:52:04.489Z,997.46
2022-11-14T09:53:04.485Z,997.39
2022-11-14T09:54:04.456Z,997.43
2022-11-14T09:55:04.442Z,997.41
2022-11-14T09:56:04.441Z,997.40
2022-11-14T09:57:04.436Z,997.39
2022-11-14T09:58:04.437Z,997.41
2022-11-14T09:59:04.852Z,997.36
2022-11-14T10:00:04.398Z,997.40
2022-11-14T10:01:09.139Z,997.32
2022-11-14T10:02:05.403Z,997.31
2022-11-14T10:03:04.359Z,997.22
2022-11-14T10:04:09.214Z,997.21
2022-11-14T10:05:05.334Z,997.24
2022-11-14T10:06:04.325Z,997.16
2022-11-14T10:07:04.364Z,997.18
2022-11-14T10:08:04.296Z,997.15
2022-11-14T10:09:04.317Z,997.24
2022-11-14T10:10:04.624Z,997.27
2022-11-14T10:11:04.263Z,997.26
2022-11-14T10:12:04.255Z,997.30
2022-11-14T10:13:04.244Z,997.30
2022-11-14T10:14:04.235Z,997.32
2022-11-14T10:15:04.266Z,997.32
2022-11-14T10:16:04.204Z,997.28
2022-11-14T10:17:07.955Z,997.26
2022-11-14T10:18:05.217Z,997.25
2022-11-14T10:19:04.175Z,997.27
2022-11-14T10:20:04.165Z,997.30
2022-11-14T10:21:04.173Z,997.24
2022-11-14T10:22:04.144Z,997.28
2022-11-14T10:23:04.126Z,997.23
2022-11-14T10:24:04.138Z,997.14
2022-11-14T10:25:04.103Z,997.14
2022-11-14T10:26:04.120Z,997.07
2022-11-14T10:27:04.086Z,997.07
2022-11-14T10:28:05.509Z,997.01
2022-11-14T10:29:04.065Z,997.02
2022-11-14T10:30:04.055Z,997.01
2022-11-14T10:31:04.046Z,996.96
2022-11-14T10:32:04.056Z,996.91
2022-11-14T10:33:04.016Z,997.00
2022-11-14T10:34:04.004Z,996.96
2022-11-14T10:35:03.996Z,996.95
2022-11-14T10:36:03.995Z,996.94
2022-11-14T10:37:11.036Z,996.97
2022-11-14T10:38:03.976Z,996.94
2022-11-14T10:39:03.946Z,996.97
2022-11-14T10:40:03.937Z,996.98
2022-11-14T10:41:03.929Z,996.98
2022-11-14T10:42:07.662Z,996.92
2022-11-14T10:43:03.920Z,996.95
2022-11-14T10:44:03.895Z,996.95
2022-11-14T10:45:03.887Z,996.97
2022-11-14T10:46:03.874Z,996.95
2022-11-14T10:47:03.868Z,997.01
2022-11-14T10:48:03.875Z,997.02
2022-11-14T10:49:03.836Z,996.96
2022-11-14T10:50:03.823Z,996.94
2022-11-14T10:51:03.809Z,997.01
2022-11-14T10:52:03.806Z,996.89
2022-11-14T10:53:03.785Z,996.87
2022-11-14T10:54:03.801Z,996.82
2022-11-14T10:55:03.769Z,996.71
2022-11-14T10:56:05.021Z,996.76
2022-11-14T10:57:03.778Z,996.77
2022-11-14T10:58:03.728Z,996.72
2022-11-14T10:59:03.718Z,996.76
2022-11-14T11:00:03.727Z,996.73
2022-11-14T11:01:03.758Z,996.80
2022-11-14T11:02:03.686Z,996.81
2022-11-14T11:03:03.675Z,996.77
2022-11-14T11:04:03.726Z,996.73
2022-11-14T11:05:03.648Z,996.71
2022-11-14T11:06:03.687Z,996.68
2022-11-14T11:07:03.657Z,996.75
2022-11-14T11:08:28.127Z,996.74
2022-11-14T11:09:04.643Z,996.73
2022-11-14T11:10:03.597Z,996.68
2022-11-14T11:11:03.593Z,996.67
2022-11-14T11:12:03.616Z,996.65
2022-11-14T11:13:03.662Z,996.68
2022-11-14T11:14:03.554Z,996.70
2022-11-14T11:15:03.535Z,996.64
2022-11-14T11:16:03.540Z,996.63
2022-11-14T11:17:03.506Z,996.61
2022-11-14T11:18:03.527Z,996.68
2022-11-14T11:19:03.486Z,996.63
2022-11-14T11:20:07.410Z,996.63
2022-11-14T11:21:03.503Z,996.63
2022-11-14T11:22:03.455Z,996.59
2022-11-14T11:23:03.634Z,996.60
2022-11-14T11:24:03.467Z,996.59
2022-11-14T11:25:03.416Z,996.65
2022-11-14T11:26:03.407Z,996.59
2022-11-14T11:27:03.396Z,996.54
2022-11-14T11:28:03.389Z,996.56
2022-11-14T11:29:03.409Z,996.54
2022-11-14T11:30:03.363Z,996.49
2022-11-14T11:31:03.347Z,996.56
2022-11-14T11:32:03.335Z,996.52
2022-11-14T11:33:03.325Z,996.49
2022-11-14T11:34:03.316Z,996.51
2022-11-14T11:35:03.326Z,996.50
2022-11-14T11:36:03.298Z,996.51
2022-11-14T11:37:03.285Z,996.57
2022-11-14T11:38:03.266Z,996.51
2022-11-14T11:39:03.258Z,996.51
2022-11-14T11:40:03.245Z,996.47
2022-11-14T11:41:03.266Z,996.47
2022-11-14T11:42:10.553Z,996.48
2022-11-14T11:44:00.549Z,996.48
2022-11-14T11:44:04.562Z,996.45
2022-11-14T11:45:03.188Z,996.48
2022-11-14T11:46:03.187Z,996.41
2022-11-14T11:47:03.186Z,996.43
2022-11-14T11:48:03.158Z,996.44
2022-11-14T11:49:03.148Z,996.42
2022-11-14T11:50:03.137Z,996.46
2022-11-14T11:51:03.136Z,996.47
2022-11-14T11:52:03.126Z,996.41
2022-11-14T11:53:03.096Z,996.38
2022-11-14T11:54:03.087Z,996.31
2022-11-14T11:55:03.076Z,996.32
2022-11-14T11:56:03.079Z,996.28
2022-11-14T11:57:03.055Z,996.26
2022-11-14T11:58:03.055Z,996.21
2022-11-14T11:59:03.035Z,996.22
2022-11-14T12:00:03.026Z,996.13
2022-11-14T12:01:03.006Z,996.10
2022-11-14T12:02:03.072Z,996.15
2022-11-14T12:03:03.130Z,996.07
2022-11-14T12:04:03.042Z,996.16
2022-11-14T12:05:02.973Z,996.11
2022-11-14T12:06:02.946Z,996.04
2022-11-14T12:07:02.960Z,996.07
2022-11-14T12:08:02.925Z,996.14
2022-11-14T12:09:02.922Z,996.12
2022-11-14T12:10:10.231Z,996.12
2022-11-14T12:11:03.887Z,996.02
2022-11-14T12:12:02.877Z,996.05
2022-11-14T12:13:02.868Z,996.06
2022-11-14T12:14:02.856Z,996.08
2022-11-14T12:15:02.849Z,996.13
2022-11-14T12:16:02.866Z,996.16
2022-11-14T12:17:02.826Z,996.15
2022-11-14T12:18:02.816Z,996.12
2022-11-14T12:19:02.799Z,996.18
2022-11-14T12:20:02.787Z,996.14
2022-11-14T12:21:02.779Z,996.13
2022-11-14T12:22:02.787Z,996.15
2022-11-14T12:23:02.755Z,996.12
2022-11-14T12:24:02.751Z,996.07
2022-11-14T12:25:02.747Z,996.05
2022-11-14T12:26:02.722Z,996.00
2022-11-14T12:27:02.712Z,996.02
2022-11-14T12:28:03.225Z,996.06